KPOE/POE METAR and TAF weather

Enter ICAO airport designator
Station Type Date Time Source
KPOE METAR 2019/07/17 18:58 UTC NOAA

KPOE 171858Z AUTO 19008KT 10SM FEW043 33/22 A3007 RMK AO2 SLP181 T03270223


Station Type Date Time Source
KPOE Decoded METAR 2019/07/17 18:58 UTC NOAA

Fort Polk, Polk AAF Ft Polk, LA, United States (KPOE) 31-03N 093-11-38W
Jul 17, 2019 - 02:58 PM EDT / 2019.07.17 1858 UTC
Wind: from the S (190 degrees) at 9 MPH (8 KT):0
Visibility: 10 mile(s):0
Sky conditions: mostly clear
Temperature: 90.9 F (32.7 C)
Heat index: 98.4 F (36.9 C):1
Dew Point: 72.1 F (22.3 C)
Relative Humidity: 54%
Pressure (altimeter): 30.07 in. Hg (1018 hPa)
ob: KPOE 171858Z AUTO 19008KT 10SM FEW043 33/22 A3007 RMK AO2 SLP181 T03270223
cycle: 19

Station Type Date Time Source
KPOE TAF 2019/07/17 16:11 UTC NOAA

TAF KPOE 171600Z 1716/1822 21009KT 9999 SCT015 BKN025 QNH3005INS
TEMPO 1720/1723 VCTS BKN015 BKN030CB
BECMG 1722/1723 21006KT 9999 FEW020 SCT040 QNH3000INS
BECMG 1806/1807 21006KT 4800 BR BKN008 BKN015 QNH3003INS
TEMPO 1809/1812 3200 BR BKN004
BECMG 1813/1814 20012KT 9999 NSW SCT008 BKN015 BKN030 QNH3006INS
BECMG 1814/1815 18006KT 9999 SCT030 QNH3003INS TX34/1721Z TN23/1812Z

Example: see airport list